sensor_id;sensor_type;location;lat;lon;timestamp;P1;durP1;ratioP1;P2;durP2;ratioP2
13487;SDS011;6816;48.506;9.050;2022-08-14T00:01:39;1.88;;;1.67;;
13487;SDS011;6816;48.506;9.050;2022-08-14T00:04:40;1.90;;;1.80;;
13487;SDS011;6816;48.506;9.050;2022-08-14T00:07:41;3.08;;;1.83;;
13487;SDS011;6816;48.506;9.050;2022-08-14T00:10:42;2.05;;;1.70;;
13487;SDS011;6816;48.506;9.050;2022-08-14T00:13:43;2.10;;;1.67;;
13487;SDS011;6816;48.506;9.050;2022-08-14T00:16:43;2.08;;;1.90;;
13487;SDS011;6816;48.506;9.050;2022-08-14T00:19:44;1.90;;;1.80;;
13487;SDS011;6816;48.506;9.050;2022-08-14T00:22:45;1.90;;;1.80;;
13487;SDS011;6816;48.506;9.050;2022-08-14T00:25:50;2.08;;;1.70;;
13487;SDS011;6816;48.506;9.050;2022-08-14T00:28:52;1.67;;;1.58;;
13487;SDS011;6816;48.506;9.050;2022-08-14T00:31:53;2.00;;;1.85;;
13487;SDS011;6816;48.506;9.050;2022-08-14T00:34:54;2.05;;;1.85;;
13487;SDS011;6816;48.506;9.050;2022-08-14T00:37:56;2.10;;;2.00;;
13487;SDS011;6816;48.506;9.050;2022-08-14T00:40:57;2.08;;;1.92;;
13487;SDS011;6816;48.506;9.050;2022-08-14T00:43:58;2.40;;;1.98;;
13487;SDS011;6816;48.506;9.050;2022-08-14T00:46:59;1.98;;;1.88;;
13487;SDS011;6816;48.506;9.050;2022-08-14T00:50:02;2.40;;;2.20;;
13487;SDS011;6816;48.506;9.050;2022-08-14T00:53:06;2.00;;;1.90;;
13487;SDS011;6816;48.506;9.050;2022-08-14T00:56:08;2.50;;;1.90;;
13487;SDS011;6816;48.506;9.050;2022-08-14T00:59:09;1.93;;;1.83;;
13487;SDS011;6816;48.506;9.050;2022-08-14T01:02:10;3.45;;;2.10;;
13487;SDS011;6816;48.506;9.050;2022-08-14T01:05:13;4.73;;;1.97;;
13487;SDS011;6816;48.506;9.050;2022-08-14T01:08:24;2.00;;;1.90;;
13487;SDS011;6816;48.506;9.050;2022-08-14T01:11:27;2.20;;;2.00;;
13487;SDS011;6816;48.506;9.050;2022-08-14T01:14:27;1.90;;;1.80;;
13487;SDS011;6816;48.506;9.050;2022-08-14T01:17:29;2.28;;;2.08;;
13487;SDS011;6816;48.506;9.050;2022-08-14T01:20:49;2.70;;;1.67;;
13487;SDS011;6816;48.506;9.050;2022-08-14T01:24:06;2.00;;;1.90;;
13487;SDS011;6816;48.506;9.050;2022-08-14T01:27:15;2.10;;;2.00;;
13487;SDS011;6816;48.506;9.050;2022-08-14T01:30:17;1.70;;;1.60;;
13487;SDS011;6816;48.506;9.050;2022-08-14T01:33:26;2.10;;;1.90;;
13487;SDS011;6816;48.506;9.050;2022-08-14T01:36:29;2.00;;;1.80;;
13487;SDS011;6816;48.506;9.050;2022-08-14T01:39:37;2.20;;;2.00;;
13487;SDS011;6816;48.506;9.050;2022-08-14T01:42:37;2.63;;;2.00;;
13487;SDS011;6816;48.506;9.050;2022-08-14T01:45:42;2.47;;;2.00;;
13487;SDS011;6816;48.506;9.050;2022-08-14T01:48:44;2.20;;;2.00;;
13487;SDS011;6816;48.506;9.050;2022-08-14T01:51:46;2.00;;;1.90;;
13487;SDS011;6816;48.506;9.050;2022-08-14T01:54:47;3.77;;;2.03;;
13487;SDS011;6816;48.506;9.050;2022-08-14T01:57:48;2.43;;;1.93;;
13487;SDS011;6816;48.506;9.050;2022-08-14T02:00:52;1.83;;;1.73;;
13487;SDS011;6816;48.506;9.050;2022-08-14T02:03:53;2.03;;;1.80;;
13487;SDS011;6816;48.506;9.050;2022-08-14T02:06:54;2.10;;;1.93;;
13487;SDS011;6816;48.506;9.050;2022-08-14T02:09:54;2.73;;;2.00;;
13487;SDS011;6816;48.506;9.050;2022-08-14T02:12:55;1.90;;;1.80;;
13487;SDS011;6816;48.506;9.050;2022-08-14T02:15:56;3.27;;;2.00;;
13487;SDS011;6816;48.506;9.050;2022-08-14T02:18:59;2.90;;;2.00;;
13487;SDS011;6816;48.506;9.050;2022-08-14T02:22:04;2.27;;;1.90;;
13487;SDS011;6816;48.506;9.050;2022-08-14T02:25:05;2.17;;;1.97;;
13487;SDS011;6816;48.506;9.050;2022-08-14T02:28:06;2.00;;;1.80;;
13487;SDS011;6816;48.506;9.050;2022-08-14T02:31:07;3.03;;;1.87;;
13487;SDS011;6816;48.506;9.050;2022-08-14T02:34:09;2.13;;;2.00;;
13487;SDS011;6816;48.506;9.050;2022-08-14T02:37:17;2.30;;;2.10;;
13487;SDS011;6816;48.506;9.050;2022-08-14T02:40:18;2.40;;;2.20;;
13487;SDS011;6816;48.506;9.050;2022-08-14T02:43:20;1.83;;;1.73;;
13487;SDS011;6816;48.506;9.050;2022-08-14T02:46:21;2.07;;;1.90;;
13487;SDS011;6816;48.506;9.050;2022-08-14T02:49:22;2.50;;;2.20;;
13487;SDS011;6816;48.506;9.050;2022-08-14T02:52:26;2.33;;;2.10;;
13487;SDS011;6816;48.506;9.050;2022-08-14T02:55:27;2.20;;;2.10;;
13487;SDS011;6816;48.506;9.050;2022-08-14T02:58:32;2.10;;;1.90;;
13487;SDS011;6816;48.506;9.050;2022-08-14T03:01:37;2.10;;;2.00;;
13487;SDS011;6816;48.506;9.050;2022-08-14T03:04:39;2.30;;;2.17;;
13487;SDS011;6816;48.506;9.050;2022-08-14T03:07:40;2.60;;;2.20;;
13487;SDS011;6816;48.506;9.050;2022-08-14T03:10:40;2.73;;;2.17;;
13487;SDS011;6816;48.506;9.050;2022-08-14T03:13:45;2.87;;;2.23;;
13487;SDS011;6816;48.506;9.050;2022-08-14T03:16:48;2.50;;;2.30;;
13487;SDS011;6816;48.506;9.050;2022-08-14T03:19:49;2.67;;;2.40;;
13487;SDS011;6816;48.506;9.050;2022-08-14T03:22:51;2.27;;;2.10;;
13487;SDS011;6816;48.506;9.050;2022-08-14T03:25:52;1.93;;;1.83;;
13487;SDS011;6816;48.506;9.050;2022-08-14T03:28:53;2.83;;;2.03;;
13487;SDS011;6816;48.506;9.050;2022-08-14T03:31:54;2.87;;;2.30;;
13487;SDS011;6816;48.506;9.050;2022-08-14T03:34:55;3.13;;;2.10;;
13487;SDS011;6816;48.506;9.050;2022-08-14T03:38:09;2.40;;;2.20;;
13487;SDS011;6816;48.506;9.050;2022-08-14T03:41:12;3.10;;;2.43;;
13487;SDS011;6816;48.506;9.050;2022-08-14T03:44:20;2.30;;;2.10;;
13487;SDS011;6816;48.506;9.050;2022-08-14T03:47:22;2.23;;;1.97;;
13487;SDS011;6816;48.506;9.050;2022-08-14T03:50:23;2.87;;;2.67;;
13487;SDS011;6816;48.506;9.050;2022-08-14T03:53:23;2.43;;;2.23;;
13487;SDS011;6816;48.506;9.050;2022-08-14T03:56:25;2.70;;;2.20;;
13487;SDS011;6816;48.506;9.050;2022-08-14T03:59:26;2.50;;;2.30;;
13487;SDS011;6816;48.506;9.050;2022-08-14T04:02:27;3.30;;;2.70;;
13487;SDS011;6816;48.506;9.050;2022-08-14T04:05:28;2.47;;;2.27;;
13487;SDS011;6816;48.506;9.050;2022-08-14T04:08:28;3.23;;;2.10;;
13487;SDS011;6816;48.506;9.050;2022-08-14T04:11:29;2.27;;;2.17;;
13487;SDS011;6816;48.506;9.050;2022-08-14T04:14:30;2.30;;;2.10;;
13487;SDS011;6816;48.506;9.050;2022-08-14T04:17:30;2.33;;;2.13;;
13487;SDS011;6816;48.506;9.050;2022-08-14T04:20:33;2.67;;;2.47;;
13487;SDS011;6816;48.506;9.050;2022-08-14T04:23:35;2.33;;;2.13;;
13487;SDS011;6816;48.506;9.050;2022-08-14T04:26:35;2.53;;;2.33;;
13487;SDS011;6816;48.506;9.050;2022-08-14T04:29:37;2.20;;;2.10;;
13487;SDS011;6816;48.506;9.050;2022-08-14T04:32:39;4.20;;;2.37;;
13487;SDS011;6816;48.506;9.050;2022-08-14T04:35:40;2.40;;;2.20;;
13487;SDS011;6816;48.506;9.050;2022-08-14T04:38:40;3.90;;;2.60;;
13487;SDS011;6816;48.506;9.050;2022-08-14T04:41:59;2.33;;;2.07;;
13487;SDS011;6816;48.506;9.050;2022-08-14T04:45:35;2.60;;;2.40;;
13487;SDS011;6816;48.506;9.050;2022-08-14T04:48:39;2.33;;;2.13;;
13487;SDS011;6816;48.506;9.050;2022-08-14T04:51:40;2.20;;;2.10;;
13487;SDS011;6816;48.506;9.050;2022-08-14T04:54:41;2.30;;;2.20;;
13487;SDS011;6816;48.506;9.050;2022-08-14T04:57:41;2.30;;;2.10;;
13487;SDS011;6816;48.506;9.050;2022-08-14T05:00:43;2.40;;;1.80;;
13487;SDS011;6816;48.506;9.050;2022-08-14T05:03:44;2.50;;;2.30;;
13487;SDS011;6816;48.506;9.050;2022-08-14T05:06:44;2.27;;;2.07;;
13487;SDS011;6816;48.506;9.050;2022-08-14T05:09:45;2.73;;;2.50;;
13487;SDS011;6816;48.506;9.050;2022-08-14T05:12:46;3.10;;;2.60;;
13487;SDS011;6816;48.506;9.050;2022-08-14T05:15:47;2.40;;;2.20;;
13487;SDS011;6816;48.506;9.050;2022-08-14T05:18:48;2.97;;;2.67;;
13487;SDS011;6816;48.506;9.050;2022-08-14T05:21:50;2.70;;;2.50;;
13487;SDS011;6816;48.506;9.050;2022-08-14T05:24:52;2.97;;;2.60;;
13487;SDS011;6816;48.506;9.050;2022-08-14T05:27:53;2.67;;;2.47;;
13487;SDS011;6816;48.506;9.050;2022-08-14T05:31:00;4.30;;;2.50;;
13487;SDS011;6816;48.506;9.050;2022-08-14T05:34:02;3.63;;;2.57;;
13487;SDS011;6816;48.506;9.050;2022-08-14T05:37:03;2.80;;;2.60;;
13487;SDS011;6816;48.506;9.050;2022-08-14T05:40:03;2.80;;;2.60;;
13487;SDS011;6816;48.506;9.050;2022-08-14T05:43:05;2.63;;;2.43;;
13487;SDS011;6816;48.506;9.050;2022-08-14T05:46:06;4.83;;;2.50;;
13487;SDS011;6816;48.506;9.050;2022-08-14T05:49:11;2.80;;;2.60;;
13487;SDS011;6816;48.506;9.050;2022-08-14T05:52:13;3.35;;;2.63;;
13487;SDS011;6816;48.506;9.050;2022-08-14T05:55:14;2.85;;;2.65;;
13487;SDS011;6816;48.506;9.050;2022-08-14T05:58:15;3.03;;;2.80;;
13487;SDS011;6816;48.506;9.050;2022-08-14T06:01:16;3.28;;;3.00;;
13487;SDS011;6816;48.506;9.050;2022-08-14T06:04:16;5.72;;;3.00;;
13487;SDS011;6816;48.506;9.050;2022-08-14T06:07:17;2.72;;;2.53;;
13487;SDS011;6816;48.506;9.050;2022-08-14T06:10:18;2.97;;;2.78;;
13487;SDS011;6816;48.506;9.050;2022-08-14T06:13:18;2.75;;;2.55;;
13487;SDS011;6816;48.506;9.050;2022-08-14T06:16:19;4.10;;;2.85;;
13487;SDS011;6816;48.506;9.050;2022-08-14T06:19:20;3.20;;;3.00;;
13487;SDS011;6816;48.506;9.050;2022-08-14T06:22:20;4.53;;;2.83;;
13487;SDS011;6816;48.506;9.050;2022-08-14T06:25:21;3.88;;;3.08;;
13487;SDS011;6816;48.506;9.050;2022-08-14T06:28:23;3.40;;;3.10;;
13487;SDS011;6816;48.506;9.050;2022-08-14T06:31:25;3.28;;;2.97;;
13487;SDS011;6816;48.506;9.050;2022-08-14T06:34:25;4.80;;;3.05;;
13487;SDS011;6816;48.506;9.050;2022-08-14T06:37:26;3.03;;;2.83;;
13487;SDS011;6816;48.506;9.050;2022-08-14T06:40:28;2.80;;;2.60;;
13487;SDS011;6816;48.506;9.050;2022-08-14T06:43:30;3.17;;;2.85;;
13487;SDS011;6816;48.506;9.050;2022-08-14T06:46:31;3.00;;;2.80;;
13487;SDS011;6816;48.506;9.050;2022-08-14T06:49:32;3.17;;;2.95;;
13487;SDS011;6816;48.506;9.050;2022-08-14T06:52:32;3.85;;;3.22;;
13487;SDS011;6816;48.506;9.050;2022-08-14T06:55:33;2.85;;;2.65;;
13487;SDS011;6816;48.506;9.050;2022-08-14T06:58:34;3.25;;;2.83;;
13487;SDS011;6816;48.506;9.050;2022-08-14T07:01:35;3.20;;;2.90;;
13487;SDS011;6816;48.506;9.050;2022-08-14T07:04:54;2.97;;;2.78;;
13487;SDS011;6816;48.506;9.050;2022-08-14T07:08:18;2.70;;;2.50;;
13487;SDS011;6816;48.506;9.050;2022-08-14T07:11:27;3.47;;;2.70;;
13487;SDS011;6816;48.506;9.050;2022-08-14T07:14:28;3.13;;;2.70;;
13487;SDS011;6816;48.506;9.050;2022-08-14T07:17:29;2.90;;;2.60;;
13487;SDS011;6816;48.506;9.050;2022-08-14T07:20:30;2.88;;;2.67;;
13487;SDS011;6816;48.506;9.050;2022-08-14T07:23:31;3.08;;;2.80;;
13487;SDS011;6816;48.506;9.050;2022-08-14T07:26:32;4.03;;;2.85;;
13487;SDS011;6816;48.506;9.050;2022-08-14T07:29:32;2.97;;;2.70;;
13487;SDS011;6816;48.506;9.050;2022-08-14T07:32:33;3.00;;;2.70;;
13487;SDS011;6816;48.506;9.050;2022-08-14T07:35:34;2.85;;;2.65;;
13487;SDS011;6816;48.506;9.050;2022-08-14T07:38:36;2.85;;;2.65;;
13487;SDS011;6816;48.506;9.050;2022-08-14T07:41:39;2.63;;;2.42;;
13487;SDS011;6816;48.506;9.050;2022-08-14T07:44:40;2.80;;;2.60;;
13487;SDS011;6816;48.506;9.050;2022-08-14T07:47:41;3.65;;;2.40;;
13487;SDS011;6816;48.506;9.050;2022-08-14T07:50:42;2.50;;;2.30;;
13487;SDS011;6816;48.506;9.050;2022-08-14T07:53:44;2.60;;;2.40;;
13487;SDS011;6816;48.506;9.050;2022-08-14T07:56:44;2.42;;;2.30;;
13487;SDS011;6816;48.506;9.050;2022-08-14T07:59:45;3.33;;;2.70;;
13487;SDS011;6816;48.506;9.050;2022-08-14T08:02:49;3.38;;;2.47;;
13487;SDS011;6816;48.506;9.050;2022-08-14T08:05:53;3.85;;;2.50;;
13487;SDS011;6816;48.506;9.050;2022-08-14T08:08:54;2.90;;;2.70;;
13487;SDS011;6816;48.506;9.050;2022-08-14T08:11:59;4.40;;;2.38;;
13487;SDS011;6816;48.506;9.050;2022-08-14T08:15:01;2.60;;;2.40;;
13487;SDS011;6816;48.506;9.050;2022-08-14T08:18:03;2.65;;;2.45;;
13487;SDS011;6816;48.506;9.050;2022-08-14T08:21:04;2.45;;;2.20;;
13487;SDS011;6816;48.506;9.050;2022-08-14T08:24:05;2.30;;;2.15;;
13487;SDS011;6816;48.506;9.050;2022-08-14T08:27:19;2.28;;;2.17;;
13487;SDS011;6816;48.506;9.050;2022-08-14T08:30:20;2.55;;;2.35;;
13487;SDS011;6816;48.506;9.050;2022-08-14T08:33:21;2.67;;;2.42;;
13487;SDS011;6816;48.506;9.050;2022-08-14T08:36:25;2.42;;;2.30;;
13487;SDS011;6816;48.506;9.050;2022-08-14T08:39:26;2.40;;;2.20;;
13487;SDS011;6816;48.506;9.050;2022-08-14T08:42:27;4.35;;;2.30;;
13487;SDS011;6816;48.506;9.050;2022-08-14T08:45:27;2.83;;;2.22;;
13487;SDS011;6816;48.506;9.050;2022-08-14T08:48:30;2.30;;;2.20;;
13487;SDS011;6816;48.506;9.050;2022-08-14T08:51:43;2.60;;;2.40;;
13487;SDS011;6816;48.506;9.050;2022-08-14T08:54:51;2.10;;;2.00;;
13487;SDS011;6816;48.506;9.050;2022-08-14T08:58:00;2.20;;;2.00;;
13487;SDS011;6816;48.506;9.050;2022-08-14T09:01:03;1.90;;;1.80;;
13487;SDS011;6816;48.506;9.050;2022-08-14T09:04:05;2.03;;;1.90;;
13487;SDS011;6816;48.506;9.050;2022-08-14T09:07:06;2.22;;;1.95;;
13487;SDS011;6816;48.506;9.050;2022-08-14T09:10:07;2.80;;;1.92;;
13487;SDS011;6816;48.506;9.050;2022-08-14T09:13:08;1.98;;;1.88;;
13487;SDS011;6816;48.506;9.050;2022-08-14T09:16:12;1.75;;;1.65;;
13487;SDS011;6816;48.506;9.050;2022-08-14T09:19:13;2.10;;;2.00;;
13487;SDS011;6816;48.506;9.050;2022-08-14T09:22:14;2.53;;;1.88;;
13487;SDS011;6816;48.506;9.050;2022-08-14T09:25:16;2.00;;;1.90;;
13487;SDS011;6816;48.506;9.050;2022-08-14T09:28:18;2.00;;;1.90;;
13487;SDS011;6816;48.506;9.050;2022-08-14T09:31:19;3.15;;;2.20;;
13487;SDS011;6816;48.506;9.050;2022-08-14T09:48:12;1.75;;;1.65;;
13487;SDS011;6816;48.506;9.050;2022-08-14T09:51:22;1.60;;;1.50;;
13487;SDS011;6816;48.506;9.050;2022-08-14T09:54:34;1.70;;;1.60;;
13487;SDS011;6816;48.506;9.050;2022-08-14T09:57:36;1.50;;;1.40;;
13487;SDS011;6816;48.506;9.050;2022-08-14T10:03:59;1.10;;;1.10;;
13487;SDS011;6816;48.506;9.050;2022-08-14T10:07:00;1.30;;;1.20;;
13487;SDS011;6816;48.506;9.050;2022-08-14T10:10:00;1.60;;;1.50;;
13487;SDS011;6816;48.506;9.050;2022-08-14T10:13:03;1.38;;;1.30;;
13487;SDS011;6816;48.506;9.050;2022-08-14T10:16:20;1.45;;;1.10;;
13487;SDS011;6816;48.506;9.050;2022-08-14T10:19:27;1.48;;;1.38;;
13487;SDS011;6816;48.506;9.050;2022-08-14T10:22:28;1.20;;;1.20;;
13487;SDS011;6816;48.506;9.050;2022-08-14T10:25:37;1.27;;;1.17;;
13487;SDS011;6816;48.506;9.050;2022-08-14T10:28:47;2.15;;;1.30;;
13487;SDS011;6816;48.506;9.050;2022-08-14T10:31:55;1.30;;;1.20;;
13487;SDS011;6816;48.506;9.050;2022-08-14T10:35:05;1.80;;;1.40;;
13487;SDS011;6816;48.506;9.050;2022-08-14T10:38:07;1.05;;;1.05;;
13487;SDS011;6816;48.506;9.050;2022-08-14T10:41:14;1.77;;;1.00;;
13487;SDS011;6816;48.506;9.050;2022-08-14T10:44:16;1.48;;;1.20;;
13487;SDS011;6816;48.506;9.050;2022-08-14T10:47:20;1.60;;;1.40;;
13487;SDS011;6816;48.506;9.050;2022-08-14T10:50:28;1.23;;;1.13;;
13487;SDS011;6816;48.506;9.050;2022-08-14T10:53:37;1.30;;;1.20;;
13487;SDS011;6816;48.506;9.050;2022-08-14T10:56:38;1.10;;;1.10;;
13487;SDS011;6816;48.506;9.050;2022-08-14T10:59:46;1.00;;;1.00;;
13487;SDS011;6816;48.506;9.050;2022-08-14T11:02:57;1.10;;;1.10;;
13487;SDS011;6816;48.506;9.050;2022-08-14T11:06:09;1.70;;;1.10;;
13487;SDS011;6816;48.506;9.050;2022-08-14T11:09:18;1.48;;;1.13;;
13487;SDS011;6816;48.506;9.050;2022-08-14T11:12:23;1.08;;;1.08;;
13487;SDS011;6816;48.506;9.050;2022-08-14T11:15:25;1.25;;;1.20;;
13487;SDS011;6816;48.506;9.050;2022-08-14T11:18:27;1.90;;;1.10;;
13487;SDS011;6816;48.506;9.050;2022-08-14T11:21:30;1.05;;;1.05;;
13487;SDS011;6816;48.506;9.050;2022-08-14T11:24:31;1.20;;;1.10;;
13487;SDS011;6816;48.506;9.050;2022-08-14T11:27:34;1.20;;;1.10;;
13487;SDS011;6816;48.506;9.050;2022-08-14T11:30:39;1.00;;;1.00;;
13487;SDS011;6816;48.506;9.050;2022-08-14T11:33:43;1.30;;;1.27;;
13487;SDS011;6816;48.506;9.050;2022-08-14T11:36:47;1.00;;;1.00;;
13487;SDS011;6816;48.506;9.050;2022-08-14T11:39:48;0.90;;;0.90;;
13487;SDS011;6816;48.506;9.050;2022-08-14T11:42:50;1.20;;;1.10;;
13487;SDS011;6816;48.506;9.050;2022-08-14T11:45:55;1.30;;;1.20;;
13487;SDS011;6816;48.506;9.050;2022-08-14T11:48:56;1.08;;;0.98;;
13487;SDS011;6816;48.506;9.050;2022-08-14T11:51:57;1.15;;;1.10;;
13487;SDS011;6816;48.506;9.050;2022-08-14T11:54:57;1.23;;;1.08;;
13487;SDS011;6816;48.506;9.050;2022-08-14T11:58:00;0.88;;;0.88;;
13487;SDS011;6816;48.506;9.050;2022-08-14T12:01:05;0.95;;;0.95;;
13487;SDS011;6816;48.506;9.050;2022-08-14T12:04:11;1.13;;;1.13;;
13487;SDS011;6816;48.506;9.050;2022-08-14T12:07:19;2.25;;;1.20;;
13487;SDS011;6816;48.506;9.050;2022-08-14T12:10:20;1.33;;;1.10;;
13487;SDS011;6816;48.506;9.050;2022-08-14T12:13:21;1.17;;;1.10;;
13487;SDS011;6816;48.506;9.050;2022-08-14T12:16:22;1.50;;;1.10;;
13487;SDS011;6816;48.506;9.050;2022-08-14T12:19:25;1.40;;;1.30;;
13487;SDS011;6816;48.506;9.050;2022-08-14T12:22:45;1.00;;;1.00;;
13487;SDS011;6816;48.506;9.050;2022-08-14T12:25:45;1.40;;;1.30;;
13487;SDS011;6816;48.506;9.050;2022-08-14T12:28:49;1.23;;;1.23;;
13487;SDS011;6816;48.506;9.050;2022-08-14T12:32:01;1.80;;;1.70;;
13487;SDS011;6816;48.506;9.050;2022-08-14T12:35:06;1.90;;;1.80;;
13487;SDS011;6816;48.506;9.050;2022-08-14T12:38:09;1.70;;;1.60;;
13487;SDS011;6816;48.506;9.050;2022-08-14T12:41:12;1.80;;;1.70;;
13487;SDS011;6816;48.506;9.050;2022-08-14T12:44:15;1.75;;;1.65;;
13487;SDS011;6816;48.506;9.050;2022-08-14T12:47:16;1.85;;;1.75;;
13487;SDS011;6816;48.506;9.050;2022-08-14T12:50:16;1.80;;;1.67;;
13487;SDS011;6816;48.506;9.050;2022-08-14T12:53:18;1.70;;;1.60;;
13487;SDS011;6816;48.506;9.050;2022-08-14T12:56:20;1.77;;;1.67;;
13487;SDS011;6816;48.506;9.050;2022-08-14T12:59:28;1.63;;;1.52;;
13487;SDS011;6816;48.506;9.050;2022-08-14T13:02:34;1.85;;;1.55;;
13487;SDS011;6816;48.506;9.050;2022-08-14T13:05:36;1.60;;;1.50;;
13487;SDS011;6816;48.506;9.050;2022-08-14T13:08:37;1.73;;;1.63;;
13487;SDS011;6816;48.506;9.050;2022-08-14T13:11:43;1.98;;;1.88;;
13487;SDS011;6816;48.506;9.050;2022-08-14T13:14:48;1.80;;;1.70;;
13487;SDS011;6816;48.506;9.050;2022-08-14T13:17:51;1.80;;;1.70;;
13487;SDS011;6816;48.506;9.050;2022-08-14T13:20:55;1.90;;;1.80;;
13487;SDS011;6816;48.506;9.050;2022-08-14T13:23:57;2.90;;;2.22;;
13487;SDS011;6816;48.506;9.050;2022-08-14T13:27:02;1.80;;;1.70;;
13487;SDS011;6816;48.506;9.050;2022-08-14T13:30:05;2.05;;;1.95;;
13487;SDS011;6816;48.506;9.050;2022-08-14T13:33:09;1.75;;;1.65;;
13487;SDS011;6816;48.506;9.050;2022-08-14T13:36:10;2.40;;;1.80;;
13487;SDS011;6816;48.506;9.050;2022-08-14T13:39:12;1.90;;;1.80;;
13487;SDS011;6816;48.506;9.050;2022-08-14T13:42:18;2.22;;;2.03;;
13487;SDS011;6816;48.506;9.050;2022-08-14T13:45:22;1.85;;;1.75;;
13487;SDS011;6816;48.506;9.050;2022-08-14T13:48:23;1.80;;;1.70;;
13487;SDS011;6816;48.506;9.050;2022-08-14T13:51:24;2.28;;;2.17;;
13487;SDS011;6816;48.506;9.050;2022-08-14T13:54:28;2.40;;;2.30;;
13487;SDS011;6816;48.506;9.050;2022-08-14T13:57:33;1.98;;;1.88;;
13487;SDS011;6816;48.506;9.050;2022-08-14T14:00:37;2.03;;;1.92;;
13487;SDS011;6816;48.506;9.050;2022-08-14T14:03:39;2.70;;;2.10;;
13487;SDS011;6816;48.506;9.050;2022-08-14T14:06:49;2.10;;;2.00;;
13487;SDS011;6816;48.506;9.050;2022-08-14T14:09:50;2.20;;;2.10;;
13487;SDS011;6816;48.506;9.050;2022-08-14T14:12:54;2.15;;;2.05;;
13487;SDS011;6816;48.506;9.050;2022-08-14T14:15:54;2.17;;;2.05;;
13487;SDS011;6816;48.506;9.050;2022-08-14T14:19:04;2.28;;;2.17;;
13487;SDS011;6816;48.506;9.050;2022-08-14T14:22:07;2.97;;;2.45;;
13487;SDS011;6816;48.506;9.050;2022-08-14T14:25:13;2.30;;;2.17;;
13487;SDS011;6816;48.506;9.050;2022-08-14T14:28:15;2.30;;;2.20;;
13487;SDS011;6816;48.506;9.050;2022-08-14T14:31:20;2.40;;;1.85;;
13487;SDS011;6816;48.506;9.050;2022-08-14T14:34:28;1.98;;;1.88;;
13487;SDS011;6816;48.506;9.050;2022-08-14T14:37:32;2.30;;;2.08;;
13487;SDS011;6816;48.506;9.050;2022-08-14T14:40:36;2.42;;;2.33;;
13487;SDS011;6816;48.506;9.050;2022-08-14T14:43:38;2.03;;;1.92;;
13487;SDS011;6816;48.506;9.050;2022-08-14T14:46:43;1.90;;;1.80;;
13487;SDS011;6816;48.506;9.050;2022-08-14T14:49:49;2.17;;;2.08;;
13487;SDS011;6816;48.506;9.050;2022-08-14T14:52:51;2.10;;;2.00;;
13487;SDS011;6816;48.506;9.050;2022-08-14T14:55:52;2.17;;;2.08;;
13487;SDS011;6816;48.506;9.050;2022-08-14T14:58:55;2.30;;;2.20;;
13487;SDS011;6816;48.506;9.050;2022-08-14T15:02:03;2.85;;;2.38;;
13487;SDS011;6816;48.506;9.050;2022-08-14T15:05:06;2.25;;;2.08;;
13487;SDS011;6816;48.506;9.050;2022-08-14T15:08:07;2.00;;;1.90;;
13487;SDS011;6816;48.506;9.050;2022-08-14T15:11:08;2.00;;;1.90;;
13487;SDS011;6816;48.506;9.050;2022-08-14T15:14:08;2.13;;;2.03;;
13487;SDS011;6816;48.506;9.050;2022-08-14T15:17:09;2.30;;;2.20;;
13487;SDS011;6816;48.506;9.050;2022-08-14T15:20:11;2.10;;;2.00;;
13487;SDS011;6816;48.506;9.050;2022-08-14T15:23:13;2.15;;;1.98;;
13487;SDS011;6816;48.506;9.050;2022-08-14T15:26:15;2.25;;;2.15;;
13487;SDS011;6816;48.506;9.050;2022-08-14T15:29:15;2.15;;;2.05;;
13487;SDS011;6816;48.506;9.050;2022-08-14T15:32:16;2.03;;;1.90;;
13487;SDS011;6816;48.506;9.050;2022-08-14T15:35:17;2.30;;;2.20;;
13487;SDS011;6816;48.506;9.050;2022-08-14T15:38:17;1.98;;;1.88;;
13487;SDS011;6816;48.506;9.050;2022-08-14T15:41:18;2.20;;;2.10;;
13487;SDS011;6816;48.506;9.050;2022-08-14T15:44:20;2.13;;;2.03;;
13487;SDS011;6816;48.506;9.050;2022-08-14T15:47:22;2.45;;;2.28;;
13487;SDS011;6816;48.506;9.050;2022-08-14T15:50:24;2.08;;;1.98;;
13487;SDS011;6816;48.506;9.050;2022-08-14T15:53:28;1.85;;;1.75;;
13487;SDS011;6816;48.506;9.050;2022-08-14T15:56:29;2.17;;;2.08;;
13487;SDS011;6816;48.506;9.050;2022-08-14T15:59:29;2.05;;;1.95;;
13487;SDS011;6816;48.506;9.050;2022-08-14T16:02:50;2.17;;;1.98;;
13487;SDS011;6816;48.506;9.050;2022-08-14T16:05:51;2.15;;;2.05;;
13487;SDS011;6816;48.506;9.050;2022-08-14T16:08:52;2.22;;;2.13;;
13487;SDS011;6816;48.506;9.050;2022-08-14T16:11:54;1.98;;;1.88;;
13487;SDS011;6816;48.506;9.050;2022-08-14T16:14:55;2.45;;;2.22;;
13487;SDS011;6816;48.506;9.050;2022-08-14T16:17:55;1.80;;;1.70;;
13487;SDS011;6816;48.506;9.050;2022-08-14T16:20:56;2.10;;;2.00;;
13487;SDS011;6816;48.506;9.050;2022-08-14T16:23:59;1.70;;;1.60;;
13487;SDS011;6816;48.506;9.050;2022-08-14T16:27:00;1.77;;;1.67;;
13487;SDS011;6816;48.506;9.050;2022-08-14T16:30:04;1.92;;;1.83;;
13487;SDS011;6816;48.506;9.050;2022-08-14T16:33:07;1.90;;;1.80;;
13487;SDS011;6816;48.506;9.050;2022-08-14T16:36:12;2.97;;;2.05;;
13487;SDS011;6816;48.506;9.050;2022-08-14T16:39:21;2.38;;;2.03;;
13487;SDS011;6816;48.506;9.050;2022-08-14T16:42:23;1.90;;;1.80;;
13487;SDS011;6816;48.506;9.050;2022-08-14T16:45:29;1.92;;;1.80;;
13487;SDS011;6816;48.506;9.050;2022-08-14T16:48:30;1.75;;;1.65;;
13487;SDS011;6816;48.506;9.050;2022-08-14T16:51:31;2.17;;;2.08;;
13487;SDS011;6816;48.506;9.050;2022-08-14T16:54:32;1.90;;;1.80;;
13487;SDS011;6816;48.506;9.050;2022-08-14T16:57:33;1.90;;;1.80;;
13487;SDS011;6816;48.506;9.050;2022-08-14T17:00:46;1.90;;;1.80;;
13487;SDS011;6816;48.506;9.050;2022-08-14T17:03:50;2.67;;;1.70;;
13487;SDS011;6816;48.506;9.050;2022-08-14T17:06:56;2.25;;;1.67;;
13487;SDS011;6816;48.506;9.050;2022-08-14T17:09:58;2.17;;;2.05;;
13487;SDS011;6816;48.506;9.050;2022-08-14T17:13:22;1.92;;;1.83;;
13487;SDS011;6816;48.506;9.050;2022-08-14T17:16:33;2.70;;;1.63;;
13487;SDS011;6816;48.506;9.050;2022-08-14T17:19:36;1.90;;;1.80;;
13487;SDS011;6816;48.506;9.050;2022-08-14T17:25:50;2.17;;;1.65;;
13487;SDS011;6816;48.506;9.050;2022-08-14T17:29:02;1.83;;;1.73;;
13487;SDS011;6816;48.506;9.050;2022-08-14T17:32:11;1.80;;;1.70;;
13487;SDS011;6816;48.506;9.050;2022-08-14T17:35:13;1.90;;;1.80;;
13487;SDS011;6816;48.506;9.050;2022-08-14T17:38:14;2.03;;;1.70;;
13487;SDS011;6816;48.506;9.050;2022-08-14T17:41:19;2.00;;;1.90;;
13487;SDS011;6816;48.506;9.050;2022-08-14T17:44:28;1.90;;;1.80;;
13487;SDS011;6816;48.506;9.050;2022-08-14T17:47:30;1.92;;;1.60;;
13487;SDS011;6816;48.506;9.050;2022-08-14T17:50:42;2.40;;;1.48;;
13487;SDS011;6816;48.506;9.050;2022-08-14T17:53:47;1.80;;;1.70;;
13487;SDS011;6816;48.506;9.050;2022-08-14T17:56:48;2.20;;;2.00;;
13487;SDS011;6816;48.506;9.050;2022-08-14T17:59:50;2.10;;;2.00;;
13487;SDS011;6816;48.506;9.050;2022-08-14T18:02:53;2.35;;;2.25;;
13487;SDS011;6816;48.506;9.050;2022-08-14T18:05:56;2.00;;;1.90;;
13487;SDS011;6816;48.506;9.050;2022-08-14T18:08:58;2.15;;;1.90;;
13487;SDS011;6816;48.506;9.050;2022-08-14T18:12:00;3.05;;;2.03;;
13487;SDS011;6816;48.506;9.050;2022-08-14T18:15:06;1.92;;;1.83;;
13487;SDS011;6816;48.506;9.050;2022-08-14T18:18:07;1.88;;;1.77;;
13487;SDS011;6816;48.506;9.050;2022-08-14T18:21:10;1.65;;;1.55;;
13487;SDS011;6816;48.506;9.050;2022-08-14T18:24:11;3.50;;;1.90;;
13487;SDS011;6816;48.506;9.050;2022-08-14T18:27:19;2.03;;;1.88;;
13487;SDS011;6816;48.506;9.050;2022-08-14T18:30:22;1.60;;;1.50;;
13487;SDS011;6816;48.506;9.050;2022-08-14T18:33:25;1.63;;;1.52;;
13487;SDS011;6816;48.506;9.050;2022-08-14T18:36:38;3.17;;;2.00;;
13487;SDS011;6816;48.506;9.050;2022-08-14T18:39:43;1.75;;;1.65;;
13487;SDS011;6816;48.506;9.050;2022-08-14T18:42:49;1.55;;;1.45;;
13487;SDS011;6816;48.506;9.050;2022-08-14T18:45:58;1.60;;;1.50;;
13487;SDS011;6816;48.506;9.050;2022-08-14T18:49:18;1.60;;;1.50;;
13487;SDS011;6816;48.506;9.050;2022-08-14T18:52:19;1.58;;;1.48;;
13487;SDS011;6816;48.506;9.050;2022-08-14T18:58:28;1.80;;;1.70;;
13487;SDS011;6816;48.506;9.050;2022-08-14T19:01:44;1.85;;;1.75;;
13487;SDS011;6816;48.506;9.050;2022-08-14T19:04:44;1.98;;;1.88;;